Informes METAR cercanos


LEVC - Manises, Valencia, ESPAÑA
Distance from station: NNE 72km
Actualización: 17/07/2018 16:30
Algunas nubes
Algunas nubes
 Viento del ESE
Viento: ESE 19 km/h
Temperatura: 30°C
Índice de calor: 31°C
Rocío: 17°C
Humedad: 46%
Barómetro: 1016 hPa
Clouds: Algunas nubes
Visibility: 10 km
Cloud details: Algunas nubes 1219 m
2018/07/17 14:30 LEVC 171430Z 12010KT 070V150 9999 FEW040 30/17 Q1016 NOSIG
LEAL - El Altet, Alicante, ESPAÑA
Distance from station: S 70km
Actualización: 17/07/2018 16:30
Despejado
Despejado
 Viento del ENE
Viento: ENE 17 km/h
Temperatura: 29°C
Índice de calor: 31°C
Rocío: 20°C
Humedad: 58%
Barómetro: 1016 hPa
Resumen: Despejado
Visibility: Mas de 10 km
2018/07/17 14:30 LEAL 171430Z 07009KT 050V130 CAVOK 29/20 Q1016 NOSIG
 
LELC - San Javier, Murcia, ESPAÑA
Distance from station: SSO 188km
Actualización: 17/07/2018 16:30
Despejado
Despejado
 Viento del E
Viento: E 13 km/h
Temperatura: 29°C
Índice de calor: 30°C
Rocío: 19°C
Humedad: 55%
Barómetro: 1016 hPa
Resumen: Despejado
Visibility: Mas de 10 km
2018/07/17 14:30 LELC 171430Z 08007KT 020V140 CAVOK 29/19 Q1016 NOSIG
LEAB - Los Llanos, Albacete, ESPAÑA
Distance from station: O 143km
Actualización: 17/07/2018 16:00
Despejado
Despejado
 Viento del S
Viento: S 19 km/h
Temperatura: 33°C
Rocío: 6°C
Humedad: 18%
Barómetro: 1018 hPa
Resumen: Despejado
Visibility: Mas de 10 km
2018/07/17 14:00 LEAB 171400Z 17010KT 120V220 CAVOK 33/06 Q1018 NOSIG